Portland — WDG2201 — position and weather

sailwx.info

Track history (hours):
 
Tides and Currents Weather Stations Pressure Air Temp Water Temp Dewpoint Dewpoint Depression Visibility Wind Speed Wind Dir Waves Ship Positions

Portland

Owner: Shaver Transportation Company, Portland, OR. More information available from US FCC via Universal Licensing System and Coast Guard Vessel Documentation Center.

Last reported at 2017-May-27 21:00 UTC. Time now 2017-May-27 21:13 UTC.
Position N 46°05' W 122°56'.

Length 27 m; draft 4 m.

Type: Towing. MMSI: 367315814.

Date/timePositionNaut miles runAvg speedWind from/ knotsBaromVisibWave heightAir tempDewpointWater temp
2017-May-27 21:00N 46°05' W 122°56'0 0.0
2017-May-27 20:27N 46°05' W 122°56'0 0.0
2017-May-27 20:00N 46°05' W 122°56'0 0.0
2017-May-27 19:30N 46°05' W 122°56'0 0.0
2017-May-27 19:00N 46°05' W 122°56'0 0.0
2017-May-27 18:30N 46°05' W 122°56'0 0.0
2017-May-27 18:00N 46°05' W 122°56'0 0.0
2017-May-27 17:30N 46°05' W 122°56'0 0.0
2017-May-27 17:00N 46°05' W 122°56'0 0.0
2017-May-27 16:30N 46°05' W 122°56'0 0.0
2017-May-27 16:00N 46°05' W 122°56'0 0.0
2017-May-27 15:30N 46°05' W 122°56'0 0.0
2017-May-27 15:00N 46°05' W 122°56'0 0.0
2017-May-27 14:30N 46°05' W 122°56'0 0.0
2017-May-27 13:30N 46°05' W 122°56'0 0.0
2017-May-27 13:00N 46°05' W 122°56'0 0.0
2017-May-27 12:30N 46°05' W 122°56'0 0.0
2017-May-27 12:00N 46°05' W 122°56'0 0.0
2017-May-27 11:29N 46°05' W 122°56'1 1.1
2017-May-27 10:58N 46°06' W 122°56'0 0.6
2017-May-27 10:30N 46°06' W 122°57'1 1.4
2017-May-27 09:59N 46°05' W 122°56'0 0.0
2017-May-27 09:26N 46°05' W 122°56'0 0.0
2017-May-27 08:59N 46°05' W 122°56'0 0.0
2017-May-27 08:29N 46°05' W 122°56'0 0.0
2017-May-27 07:56N 46°05' W 122°56'0 0.0
2017-May-27 07:29N 46°05' W 122°56'0 0.0
2017-May-27 06:59N 46°05' W 122°56'0 0.0
2017-May-27 06:29N 46°05' W 122°56'0 0.0
2017-May-27 05:59N 46°05' W 122°56'0 0.0
2017-May-27 05:29N 46°05' W 122°56'0 0.0
2017-May-27 04:56N 46°05' W 122°56'0 0.0
2017-May-27 04:26N 46°05' W 122°56'0 0.0
2017-May-27 03:59N 46°05' W 122°56'0 0.0
2017-May-27 03:29N 46°05' W 122°56'0 0.0
2017-May-27 02:59N 46°05' W 122°56'0 0.0
2017-May-27 02:29N 46°05' W 122°56'0 0.0
2017-May-27 01:59N 46°05' W 122°56'0 0.0
2017-May-27 01:29N 46°05' W 122°56'0 0.0
2017-May-27 00:59N 46°05' W 122°56'1 2.5
2017-May-27 00:31N 46°06' W 122°57'1 2.3
2017-May-26 23:59N 46°05' W 122°56'0 0.0
2017-May-26 23:29N 46°05' W 122°56'0 0.0
2017-May-26 22:59N 46°05' W 122°56'1 1.6
2017-May-26 22:30N 46°05' W 122°55'3 5.5
2017-May-26 22:00N 46°07' W 122°58'510.4
2017-May-26 21:30N 46°10' W 123°04'5 9.7
2017-May-26 21:01N 46°11' W 123°11'0 1.0
2017-May-26 20:30N 46°11' W 123°10'815.6
2017-May-26 20:00N 46°08' W 123°00'4 6.7
2017-May-26 19:26N 46°05' W 122°56'0 0.0
2017-May-26 18:59N 46°05' W 122°56'0 0.0
2017-May-26 18:29N 46°05' W 122°56'0 0.0
2017-May-26 17:59N 46°05' W 122°56'0 0.0
2017-May-26 17:29N 46°05' W 122°56'0 0.0
2017-May-26 16:59N 46°05' W 122°56'0 0.0
2017-May-26 16:26N 46°05' W 122°56'0 0.0
2017-May-26 15:59N 46°05' W 122°56'0 0.0
2017-May-26 15:29N 46°05' W 122°56'0 0.0
2017-May-26 14:53N 46°05' W 122°56'0 0.0
2017-May-26 13:59N 46°05' W 122°56'0 0.0
2017-May-26 13:29N 46°05' W 122°56'0 0.0
2017-May-26 12:59N 46°05' W 122°56'0 0.0
2017-May-26 12:29N 46°05' W 122°56'0 0.0
2017-May-26 11:59N 46°05' W 122°56'0 0.0
2017-May-26 11:29N 46°05' W 122°56'0 0.0
2017-May-26 10:59N 46°05' W 122°56'0 0.0
2017-May-26 10:29N 46°05' W 122°56'0 0.0
2017-May-26 09:59N 46°05' W 122°56'0 0.0
2017-May-26 09:29N 46°05' W 122°56'0 0.0
2017-May-26 08:59N 46°05' W 122°56'0 0.0
2017-May-26 08:29N 46°05' W 122°56'0 0.0
2017-May-26 07:59N 46°05' W 122°56'0 0.0
2017-May-26 07:29N 46°05' W 122°56'0 0.0
2017-May-26 07:00N 46°05' W 122°56'0 0.0
2017-May-26 06:29N 46°05' W 122°56'1 1.2
2017-May-26 06:00N 46°05' W 122°55'3 6.4
2017-May-26 05:30N 46°03' W 122°53'0 0.9
2017-May-26 05:01N 46°03' W 122°53'1 1.3
2017-May-26 04:30N 46°04' W 122°53'0 0.7
2017-May-26 04:01N 46°04' W 122°53'2 4.2
2017-May-26 03:30N 46°05' W 122°56'0 0.5
2017-May-26 03:01N 46°05' W 122°56'0 0.0
2017-May-26 02:31N 46°05' W 122°56'0 0.0
2017-May-26 02:01N 46°05' W 122°56'0 0.0
2017-May-26 01:31N 46°05' W 122°56'0 0.0
2017-May-26 01:01N 46°05' W 122°56'0 0.0
2017-May-26 00:30N 46°05' W 122°56'0 0.0
2017-May-26 00:00N 46°05' W 122°56'0 0.0
2017-May-25 23:30N 46°05' W 122°56'0 0.0
2017-May-25 23:01N 46°05' W 122°56'0 0.0
2017-May-25 22:30N 46°05' W 122°56'0 0.0
2017-May-25 22:00N 46°05' W 122°56'0 0.0
2017-May-25 21:30N 46°05' W 122°56'0 0.0
2017-May-25 21:00N 46°05' W 122°56'0 0.0
2017-May-25 20:31N 46°05' W 122°56'0 0.0
2017-May-25 20:01N 46°05' W 122°56'0 0.0
2017-May-25 19:30N 46°05' W 122°56'0 0.0
2017-May-25 19:01N 46°05' W 122°56'0 0.0
2017-May-25 18:30N 46°05' W 122°56'0 0.0
2017-May-25 18:00N 46°05' W 122°56'0 0.0
2017-May-25 17:30N 46°05' W 122°56'0 0.0
2017-May-25 17:01N 46°05' W 122°56'0 0.0
2017-May-25 16:30N 46°05' W 122°56'1 1.3
2017-May-25 16:01N 46°06' W 122°56'0 0.3
2017-May-25 15:31N 46°06' W 122°56'0 0.0
2017-May-25 15:01N 46°06' W 122°56'2 1.6
2017-May-25 14:00N 46°07' W 122°58'2 3.8
2017-May-25 13:28N 46°05' W 122°56'0 0.0
2017-May-25 12:58N 46°05' W 122°56'0 0.0
2017-May-25 12:28N 46°05' W 122°56'0 0.0
2017-May-25 11:58N 46°05' W 122°56'0 0.0
2017-May-25 11:29N 46°05' W 122°56'0 0.0
2017-May-25 10:58N 46°05' W 122°56'0 0.0
2017-May-25 10:28N 46°05' W 122°56'0 0.0
2017-May-25 09:58N 46°05' W 122°56'0 0.0
2017-May-25 09:28N 46°05' W 122°56'0 0.0
2017-May-25 09:00N 46°05' W 122°56'0 0.0
2017-May-25 08:30N 46°05' W 122°56'611.9
2017-May-25 08:00N 46°09' W 123°03'4 7.4
2017-May-25 07:30N 46°07' W 122°58'510.1
2017-May-25 07:00N 46°10' W 123°04'5 9.7
2017-May-25 06:30N 46°11' W 123°11'510.3
2017-May-25 06:00N 46°09' W 123°18'5 9.4
2017-May-25 05:30N 46°10' W 123°24'510.2
2017-May-25 05:00N 46°15' W 123°26'5 9.7
2017-May-25 04:30N 46°15' W 123°33'611.1
2017-May-25 04:00N 46°15' W 123°41'611.9
2017-May-25 03:30N 46°12' W 123°49'2 4.1
2017-May-25 03:00N 46°11' W 123°52'1 2.2
2017-May-25 02:30N 46°11' W 123°53'1 2.2
2017-May-25 02:00N 46°11' W 123°52'0 0.0
2017-May-25 01:30N 46°11' W 123°52'0 0.2
2017-May-25 01:00N 46°11' W 123°52'0 0.3
2017-May-25 00:30N 46°11' W 123°52'0 0.0
2017-May-25 00:00N 46°11' W 123°52'0 0.0
2017-May-24 23:30N 46°11' W 123°52'0 0.0
2017-May-24 22:59N 46°11' W 123°52'0 0.0
2017-May-24 22:29N 46°11' W 123°52'0 0.0
2017-May-24 21:59N 46°11' W 123°52'0 0.0
2017-May-24 21:29N 46°11' W 123°52'3 7.1
2017-May-24 21:00N 46°13' W 123°47'510.1
2017-May-24 20:30N 46°15' W 123°41'5 9.3
2017-May-24 20:00N 46°15' W 123°34'4 8.7
2017-May-24 19:30N 46°16' W 123°28'5 9.3
2017-May-24 19:00N 46°12' W 123°26'5 9.8
2017-May-24 18:30N 46°09' W 123°20'611.5
2017-May-24 18:00N 46°11' W 123°12'510.9
2017-May-24 17:31N 46°10' W 123°05'611.9
2017-May-24 17:00N 46°06' W 122°58'1 2.7
2017-May-24 16:30N 46°05' W 122°56'0 0.0
2017-May-24 16:00N 46°05' W 122°56'0 0.0
2017-May-24 15:30N 46°05' W 122°56'0 0.0
2017-May-24 15:00N 46°05' W 122°56'0 0.0
2017-May-24 14:30N 46°05' W 122°56'0 0.0
2017-May-24 13:30N 46°05' W 122°56'0 0.6
2017-May-24 13:00N 46°06' W 122°55'1 1.6
2017-May-24 12:30N 46°06' W 122°56'1 1.2
2017-May-24 11:59N 46°05' W 122°56'0 0.0
2017-May-24 11:29N 46°05' W 122°56'0 0.0
2017-May-24 10:59N 46°05' W 122°56'0 0.0
2017-May-24 10:23N 46°05' W 122°56'0 0.0
2017-May-24 09:59N 46°05' W 122°56'0 0.0
2017-May-24 09:29N 46°05' W 122°56'0 0.0
2017-May-24 08:59N 46°05' W 122°56'0 0.0
2017-May-24 08:29N 46°05' W 122°56'0 0.0
2017-May-24 07:59N 46°05' W 122°56'0 0.0
2017-May-24 07:26N 46°05' W 122°56'0 0.0
2017-May-24 06:59N 46°05' W 122°56'0 0.0
2017-May-24 06:29N 46°05' W 122°56'0 0.0
2017-May-24 05:56N 46°05' W 122°56'0 0.0
2017-May-24 05:29N 46°05' W 122°56'0 0.0
2017-May-24 04:59N 46°05' W 122°56'0 0.0
2017-May-24 04:23N 46°05' W 122°56'0 0.0
2017-May-24 03:59N 46°05' W 122°56'0 0.0
2017-May-24 03:29N 46°05' W 122°56'0 0.0
2017-May-24 02:59N 46°05' W 122°56'0 0.0
2017-May-24 02:29N 46°05' W 122°56'0 0.0
2017-May-24 01:59N 46°05' W 122°56'0 0.0
2017-May-24 01:29N 46°05' W 122°56'0 0.0
2017-May-24 00:59N 46°05' W 122°56'0 0.0
2017-May-24 00:26N 46°05' W 122°56'0 0.0
2017-May-23 23:59N 46°05' W 122°56'0 0.0
2017-May-23 23:29N 46°05' W 122°56'0 0.0
2017-May-23 22:56N 46°05' W 122°56'0 0.0
2017-May-23 22:29N 46°05' W 122°56'0 0.0
2017-May-23 21:59N 46°05' W 122°56'0 0.0
2017-May-23 21:29N 46°05' W 122°56'1 1.6
2017-May-23 21:01N 46°06' W 122°57'0 0.1
2017-May-23 20:30N 46°06' W 122°57'2 3.4
2017-May-23 20:00N 46°05' W 122°55'4 8.7
2017-May-23 19:30N 46°01' W 122°52'3 5.2
2017-May-23 19:01N 45°59' W 122°50'0 0.2
2017-May-23 18:31N 45°59' W 122°50'0 0.4
2017-May-23 18:00N 45°59' W 122°50'0 0.0
2017-May-23 17:30N 45°59' W 122°50'0 0.0
2017-May-23 17:00N 45°59' W 122°50'0 0.0
2017-May-23 16:30N 45°59' W 122°50'3 5.4
2017-May-23 16:01N 45°57' W 122°48'611.0
2017-May-23 15:30N 45°51' W 122°47'611.8
2017-May-23 15:00N 45°46' W 122°46'611.4
2017-May-23 14:31N 45°40' W 122°46'1 1.3
2017-May-23 13:26N 45°39' W 122°45'0 0.0
2017-May-23 12:59N 45°39' W 122°45'2 4.2
2017-May-23 12:30N 45°37' W 122°47'4 8.8
2017-May-23 12:00N 45°34' W 122°44'0 0.4
2017-May-23 11:30N 45°34' W 122°44'0 0.0
2017-May-23 10:51N 45°34' W 122°44'0 0.0
2017-May-23 10:30N 45°34' W 122°44'0 0.0
2017-May-23 10:00N 45°34' W 122°44'0 0.0
2017-May-23 09:27N 45°34' W 122°44'0 0.0
2017-May-23 09:00N 45°34' W 122°44'0 0.0
2017-May-23 08:27N 45°34' W 122°44'0 0.0
2017-May-23 07:39N 45°34' W 122°44'0 0.0
2017-May-23 07:30N 45°34' W 122°44'0 0.0
2017-May-23 06:57N 45°34' W 122°44'0 0.0
2017-May-23 06:27N 45°34' W 122°44'0 0.0
2017-May-23 06:00N 45°34' W 122°44'0 0.0
2017-May-23 05:30N 45°34' W 122°44'0 0.0
2017-May-23 05:00N 45°34' W 122°44'0 0.0
2017-May-23 04:30N 45°34' W 122°44'0 0.0
2017-May-23 04:01N 45°34' W 122°44'0 0.1
2017-May-23 03:30N 45°34' W 122°44'0 0.0
2017-May-23 03:01N 45°34' W 122°44'0 0.0
2017-May-23 02:31N 45°34' W 122°44'0 0.1
2017-May-23 02:00N 45°34' W 122°44'5 9.1
2017-May-23 01:30N 45°37' W 122°47'3 6.4
2017-May-23 01:01N 45°38' W 122°43'0 0.2
2017-May-23 00:31N 45°38' W 122°43'1 2.7
2017-May-23 00:00N 45°39' W 122°45'0 0.4
2017-May-22 23:31N 45°39' W 122°45'0 0.0
2017-May-22 23:01N 45°39' W 122°45'0 0.0
2017-May-22 22:24N 45°39' W 122°45'1 2.6
2017-May-22 22:00N 45°38' W 122°47'510.5
2017-May-22 21:30N 45°34' W 122°43'0 0.1
2017-May-22 20:57N 45°34' W 122°43'0 0.0
2017-May-22 20:30N 45°34' W 122°43'0 0.1
2017-May-22 20:00N 45°34' W 122°43'0 1.0
2017-May-22 19:30N 45°34' W 122°44'0 0.2
2017-May-22 18:50N 45°34' W 122°44'0 0.1
2017-May-22 18:26N 45°34' W 122°44'0 0.6
2017-May-22 18:00N 45°34' W 122°44'0 0.4
2017-May-22 17:25N 45°34' W 122°44'0 0.0
2017-May-22 16:58N 45°34' W 122°44'3 5.5
2017-May-22 16:31N 45°35' W 122°46'4 7.2
2017-May-22 16:00N 45°39' W 122°45'2 3.7
2017-May-22 15:20N 45°38' W 122°42'0 0.1
2017-May-22 14:59N 45°38' W 122°42'0 0.0
2017-May-22 14:00N 45°38' W 122°42'3 5.2
2017-May-22 13:30N 45°39' W 122°45'0 0.0
2017-May-22 13:00N 45°39' W 122°45'0 0.0
2017-May-22 12:30N 45°39' W 122°45'0 0.0
2017-May-22 12:00N 45°39' W 122°45'0 0.0
2017-May-22 11:30N 45°39' W 122°45'0 0.0
2017-May-22 11:00N 45°39' W 122°45'0 0.0
2017-May-22 10:30N 45°39' W 122°45'0 0.0
2017-May-22 10:00N 45°39' W 122°45'0 0.0
2017-May-22 09:30N 45°39' W 122°45'0 0.0
2017-May-22 09:00N 45°39' W 122°45'0 0.0
2017-May-22 08:30N 45°39' W 122°45'0 0.0
2017-May-22 08:00N 45°39' W 122°45'0 0.0
2017-May-22 07:30N 45°39' W 122°45'0 0.0
2017-May-22 07:00N 45°39' W 122°45'0 0.0
2017-May-22 06:30N 45°39' W 122°45'0 0.0
2017-May-22 06:00N 45°39' W 122°45'0 0.0
2017-May-22 05:30N 45°39' W 122°45'0 0.0
2017-May-22 04:59N 45°39' W 122°45'0 0.0
2017-May-22 04:30N 45°39' W 122°45'0 0.0
2017-May-22 04:00N 45°39' W 122°45'0 0.0
2017-May-22 03:30N 45°39' W 122°45'0 0.0
2017-May-22 03:00N 45°39' W 122°45'0 0.0
2017-May-22 02:28N 45°39' W 122°45'0 0.0
2017-May-22 02:00N 45°39' W 122°45'0 0.0
2017-May-22 01:29N 45°39' W 122°45'0 0.0
2017-May-22 01:00N 45°39' W 122°45'0 0.0
2017-May-22 00:31N 45°39' W 122°45'0 0.6
2017-May-21 23:55N 45°39' W 122°45'1 2.6
2017-May-21 23:30N 45°38' W 122°47'2 4.5
2017-May-21 22:59N 45°36' W 122°47'1 1.1
2017-May-21 22:30N 45°36' W 122°47'0 0.8
2017-May-21 22:00N 45°37' W 122°47'3 5.5
2017-May-21 21:30N 45°39' W 122°44'1 1.1
2017-May-21 20:59N 45°39' W 122°45'0 0.0
2017-May-21 20:29N 45°39' W 122°45'0 0.0
2017-May-21 19:59N 45°39' W 122°45'0 0.0
2017-May-21 19:29N 45°39' W 122°45'0 0.0
2017-May-21 18:59N 45°39' W 122°45'0 0.0
2017-May-21 18:29N 45°39' W 122°45'0 0.0
2017-May-21 17:50N 45°39' W 122°45'0 0.0
2017-May-21 17:29N 45°39' W 122°45'0 0.0
2017-May-21 16:59N 45°39' W 122°45'0 0.0
2017-May-21 16:29N 45°39' W 122°45'0 0.0
2017-May-21 15:59N 45°39' W 122°45'0 0.0
2017-May-21 15:29N 45°39' W 122°45'0 0.0
2017-May-21 14:56N 45°39' W 122°45'0 0.0
2017-May-21 14:26N 45°39' W 122°45'0 0.0
2017-May-21 13:29N 45°39' W 122°45'0 0.0
2017-May-21 12:59N 45°39' W 122°45'0 0.0
2017-May-21 12:29N 45°39' W 122°45'0 0.0
2017-May-21 11:59N 45°39' W 122°45'0 0.0
2017-May-21 11:29N 45°39' W 122°45'0 0.0
2017-May-21 10:59N 45°39' W 122°45'0 0.0
2017-May-21 10:29N 45°39' W 122°45'0 0.0
2017-May-21 09:59N 45°39' W 122°45'0 0.0
2017-May-21 09:29N 45°39' W 122°45'0 0.0
2017-May-21 08:59N 45°39' W 122°45'0 0.0
2017-May-21 08:29N 45°39' W 122°45'0 0.0
2017-May-21 07:50N 45°39' W 122°45'0 0.0
2017-May-21 07:29N 45°39' W 122°45'0 0.0
2017-May-21 06:47N 45°39' W 122°45'0 0.0
2017-May-21 06:29N 45°39' W 122°45'0 0.0
2017-May-21 05:59N 45°39' W 122°45'0 0.0
2017-May-21 05:29N 45°39' W 122°45'0 0.0
2017-May-21 04:59N 45°39' W 122°45'0 0.0
2017-May-21 04:29N 45°39' W 122°45'0 0.0
2017-May-21 03:59N 45°39' W 122°45'0 0.0
2017-May-21 03:26N 45°39' W 122°45'0 0.0
2017-May-21 02:59N 45°39' W 122°45'0 0.0
2017-May-21 02:29N 45°39' W 122°45'0 0.0
2017-May-21 01:59N 45°39' W 122°45'0 0.0
2017-May-21 01:29N 45°39' W 122°45'0 0.0
2017-May-21 00:59N 45°39' W 122°45'0 0.0
2017-May-21 00:29N 45°39' W 122°45'0 0.0
2017-May-20 23:59N 45°39' W 122°45'0 0.0
2017-May-20 23:29N 45°39' W 122°45'0 0.0
2017-May-20 22:59N 45°39' W 122°45'0 0.0
2017-May-20 22:29N 45°39' W 122°45'0 0.0
2017-May-20 21:59N 45°39' W 122°45'0 0.0
2017-May-20 21:29N 45°39' W 122°45'0 0.0
2017-May-20 19:47N 45°39' W 122°45'0 0.0
2017-May-20 19:29N 45°39' W 122°45'0 0.0
2017-May-20 18:41N 45°39' W 122°45'0 0.0
2017-May-20 18:29N 45°39' W 122°45'0 0.0
2017-May-20 17:59N 45°39' W 122°45'0 0.0
2017-May-20 17:29N 45°39' W 122°45'0 0.0
2017-May-20 16:59N 45°39' W 122°45'0 0.0
2017-May-20 16:29N 45°39' W 122°45'0 0.0
2017-May-20 15:59N 45°39' W 122°45'0 0.0
2017-May-20 15:29N 45°39' W 122°45'0 0.0
2017-May-20 14:59N 45°39' W 122°45'0 0.0
2017-May-20 14:29N 45°39' W 122°45'0 0.0
2017-May-20 13:29N 45°39' W 122°45'0 0.0
2017-May-20 12:59N 45°39' W 122°45'0 0.0
2017-May-20 12:26N 45°39' W 122°45'0 0.0
2017-May-20 11:59N 45°39' W 122°45'0 0.0
2017-May-20 11:29N 45°39' W 122°45'0 0.0
2017-May-20 10:59N 45°39' W 122°45'0 0.0
2017-May-20 10:23N 45°39' W 122°45'0 0.0
2017-May-20 09:59N 45°39' W 122°45'0 0.0
2017-May-20 09:29N 45°39' W 122°45'0 0.0
2017-May-20 08:59N 45°39' W 122°45'0 0.0
2017-May-20 08:29N 45°39' W 122°45'0 0.0
2017-May-20 07:59N 45°39' W 122°45'0 0.0
2017-May-20 07:29N 45°39' W 122°45'0 0.0
2017-May-20 06:59N 45°39' W 122°45'0 0.0
2017-May-20 06:29N 45°39' W 122°45'0 0.0
2017-May-20 05:59N 45°39' W 122°45'0 0.0
2017-May-20 05:29N 45°39' W 122°45'1 1.7
2017-May-20 05:00N 45°39' W 122°44'2 3.2
2017-May-20 04:31N 45°38' W 122°42'2 4.6
2017-May-20 04:00N 45°39' W 122°45'0 0.0
2017-May-20 03:30N 45°39' W 122°45'0 0.0
2017-May-20 03:00N 45°39' W 122°45'0 0.0
2017-May-20 02:30N 45°39' W 122°45'0 0.0
2017-May-20 02:00N 45°39' W 122°45'0 0.0
2017-May-20 01:30N 45°39' W 122°45'0 0.0
2017-May-20 00:42N 45°39' W 122°45'0 0.0
2017-May-20 00:30N 45°39' W 122°45'0 0.0
2017-May-20 00:00N 45°39' W 122°45'0 0.0
2017-May-19 23:30N 45°39' W 122°45'0 0.0
2017-May-19 23:00N 45°39' W 122°45'0 0.0
2017-May-19 22:30N 45°39' W 122°45'0 0.0
2017-May-19 22:00N 45°39' W 122°45'0 0.0
2017-May-19 21:30N 45°39' W 122°45'0 0.0
2017-May-19 20:54N 45°39' W 122°45'0 0.0
2017-May-19 20:27N 45°39' W 122°45'0 0.0
2017-May-19 20:00N 45°39' W 122°45'0 0.0
2017-May-19 19:24N 45°39' W 122°45'0 0.0
2017-May-19 18:57N 45°39' W 122°45'0 0.0
2017-May-19 18:27N 45°39' W 122°45'0 0.0
2017-May-19 18:00N 45°39' W 122°45'0 0.0
2017-May-19 17:09N 45°39' W 122°45'0 0.0
2017-May-19 16:51N 45°39' W 122°45'0 0.0
2017-May-19 16:24N 45°39' W 122°45'0 0.0
2017-May-19 16:00N 45°39' W 122°45'0 0.0
2017-May-19 15:27N 45°39' W 122°45'0 0.0
2017-May-19 15:00N 45°39' W 122°45'0 0.0
2017-May-19 14:01N 45°39' W 122°45'0 0.0
2017-May-19 13:26N 45°39' W 122°45'0 0.0
2017-May-19 13:01N 45°39' W 122°45'0 0.0
2017-May-19 12:31N 45°39' W 122°45'0 0.0
2017-May-19 12:00N 45°39' W 122°45'0 0.0
2017-May-19 11:30N 45°39' W 122°45'0 0.0
2017-May-19 11:01N 45°39' W 122°45'0 0.0
2017-May-19 10:31N 45°39' W 122°45'0 0.0
2017-May-19 10:01N 45°39' W 122°45'0 0.0
2017-May-19 09:30N 45°39' W 122°45'0 0.0
2017-May-19 09:00N 45°39' W 122°45'0 0.0
2017-May-19 08:30N 45°39' W 122°45'0 0.0
2017-May-19 08:01N 45°39' W 122°45'0 0.0
2017-May-19 07:31N 45°39' W 122°45'0 0.0
2017-May-19 07:01N 45°39' W 122°45'0 0.0
2017-May-19 06:31N 45°39' W 122°45'0 0.0
2017-May-19 06:01N 45°39' W 122°45'0 0.0
2017-May-19 05:30N 45°39' W 122°45'0 0.0
2017-May-19 05:00N 45°39' W 122°45'0 0.0
2017-May-19 04:31N 45°39' W 122°45'0 0.0
2017-May-19 04:01N 45°39' W 122°45'3 6.7
2017-May-19 03:31N 45°42' W 122°46'5 9.6
2017-May-19 03:00N 45°47' W 122°46'4 8.7
2017-May-19 02:30N 45°51' W 122°47'4 7.2
2017-May-19 02:01N 45°54' W 122°49'4 8.1
2017-May-19 01:31N 45°58' W 122°50'1 1.3
2017-May-19 01:01N 45°59' W 122°50'0 0.6
2017-May-19 00:30N 45°59' W 122°50'0 0.6
2017-May-19 00:00N 45°59' W 122°50'1 2.0
2017-May-18 23:30N 45°58' W 122°49'713.6
2017-May-18 23:00N 45°52' W 122°47'713.9
2017-May-18 22:30N 45°45' W 122°46'611.9
2017-May-18 22:00N 45°39' W 122°45'1 2.4
2017-May-18 21:30N 45°38' W 122°43'2 3.1
2017-May-18 21:01N 45°39' W 122°45'0 0.0
2017-May-18 20:31N 45°39' W 122°45'0 0.0
2017-May-18 20:01N 45°39' W 122°45'0 0.0
2017-May-18 19:31N 45°39' W 122°45'0 0.0
2017-May-18 18:55N 45°39' W 122°45'0 0.0
2017-May-18 18:31N 45°39' W 122°45'0 0.0
2017-May-18 18:01N 45°39' W 122°45'0 0.0
2017-May-18 17:31N 45°39' W 122°45'0 0.0
2017-May-18 16:52N 45°39' W 122°45'0 0.0
2017-May-18 16:31N 45°39' W 122°45'0 0.0
2017-May-18 16:01N 45°39' W 122°45'2 5.0
2017-May-18 15:30N 45°38' W 122°42'0 0.2
2017-May-18 15:00N 45°38' W 122°42'0 0.1
2017-May-18 14:31N 45°38' W 122°42'3 2.5
2017-May-18 13:30N 45°39' W 122°45'0 0.0
2017-May-18 12:58N 45°39' W 122°45'0 0.0
2017-May-18 12:28N 45°39' W 122°45'0 0.0
2017-May-18 11:55N 45°39' W 122°45'0 0.0
2017-May-18 11:28N 45°39' W 122°45'0 0.0
2017-May-18 10:58N 45°39' W 122°45'0 0.0
2017-May-18 10:25N 45°39' W 122°45'0 0.0
2017-May-18 09:58N 45°39' W 122°45'0 0.0
2017-May-18 09:22N 45°39' W 122°45'0 0.0
2017-May-18 08:55N 45°39' W 122°45'0 0.0
2017-May-18 08:25N 45°39' W 122°45'0 0.0
2017-May-18 07:58N 45°39' W 122°45'0 0.0
2017-May-18 06:49N 45°39' W 122°45'0 0.0
2017-May-18 06:25N 45°39' W 122°45'0 0.0
2017-May-18 05:58N 45°39' W 122°45'0 0.0
2017-May-18 05:25N 45°39' W 122°45'1 3.6
2017-May-18 05:00N 45°38' W 122°43'0 0.0
2017-May-18 04:30N 45°38' W 122°43'0 0.1
2017-May-18 04:01N 45°38' W 122°43'1 2.4
2017-May-18 03:31N 45°39' W 122°45'0 0.7
2017-May-18 03:00N 45°39' W 122°45'0 0.0
2017-May-18 02:30N 45°39' W 122°45'0 0.0
2017-May-18 02:00N 45°39' W 122°45'0 0.0
2017-May-18 01:30N 45°39' W 122°45'0 0.0
2017-May-18 01:00N 45°39' W 122°45'1 1.0
2017-May-18 00:30N 45°39' W 122°44'0 0.3
2017-May-18 00:00N 45°39' W 122°44'0 0.2
2017-May-17 23:22N 45°39' W 122°44'0 0.1
2017-May-17 23:00N 45°39' W 122°44'1 2.6
2017-May-17 22:30N 45°39' W 122°46'2 4.6
2017-May-17 22:00N 45°37' W 122°47'4 8.3
2017-May-17 21:30N 45°34' W 122°43'  
Track history (hours):
 
Tides and Currents Weather Stations Pressure Air Temp Water Temp Dewpoint Dewpoint Depression Visibility Wind Speed Wind Dir Waves Ship Positions

Portland

Owner: Shaver Transportation Company, Portland, OR. More information available from US FCC via Universal Licensing System and Coast Guard Vessel Documentation Center.

Last reported at 2017-May-27 21:00 UTC. Time now 2017-May-27 21:13 UTC.
Position N 46°05' W 122°56'.

Length 27 m; draft 4 m.

Type: Towing. MMSI: 367315814.

Date/timePositionNaut miles runAvg speedWind from/ knotsBaromVisibWave heightAir tempDewpointWater temp
2017-May-27 21:00N 46°05' W 122°56'0 0.0
2017-May-27 20:27N 46°05' W 122°56'0 0.0
2017-May-27 20:00N 46°05' W 122°56'0 0.0
2017-May-27 19:30N 46°05' W 122°56'0 0.0
2017-May-27 19:00N 46°05' W 122°56'0 0.0
2017-May-27 18:30N 46°05' W 122°56'0 0.0
2017-May-27 18:00N 46°05' W 122°56'0 0.0
2017-May-27 17:30N 46°05' W 122°56'0 0.0
2017-May-27 17:00N 46°05' W 122°56'0 0.0
2017-May-27 16:30N 46°05' W 122°56'0 0.0
2017-May-27 16:00N 46°05' W 122°56'0 0.0
2017-May-27 15:30N 46°05' W 122°56'0 0.0
2017-May-27 15:00N 46°05' W 122°56'0 0.0
2017-May-27 14:30N 46°05' W 122°56'0 0.0
2017-May-27 13:30N 46°05' W 122°56'0 0.0
2017-May-27 13:00N 46°05' W 122°56'0 0.0
2017-May-27 12:30N 46°05' W 122°56'0 0.0
2017-May-27 12:00N 46°05' W 122°56'0 0.0
2017-May-27 11:29N 46°05' W 122°56'1 1.1
2017-May-27 10:58N 46°06' W 122°56'0 0.6
2017-May-27 10:30N 46°06' W 122°57'1 1.4
2017-May-27 09:59N 46°05' W 122°56'0 0.0
2017-May-27 09:26N 46°05' W 122°56'0 0.0
2017-May-27 08:59N 46°05' W 122°56'0 0.0
2017-May-27 08:29N 46°05' W 122°56'0 0.0
2017-May-27 07:56N 46°05' W 122°56'0 0.0
2017-May-27 07:29N 46°05' W 122°56'0 0.0
2017-May-27 06:59N 46°05' W 122°56'0 0.0
2017-May-27 06:29N 46°05' W 122°56'0 0.0
2017-May-27 05:59N 46°05' W 122°56'0 0.0
2017-May-27 05:29N 46°05' W 122°56'0 0.0
2017-May-27 04:56N 46°05' W 122°56'0 0.0
2017-May-27 04:26N 46°05' W 122°56'0 0.0
2017-May-27 03:59N 46°05' W 122°56'0 0.0
2017-May-27 03:29N 46°05' W 122°56'0 0.0
2017-May-27 02:59N 46°05' W 122°56'0 0.0
2017-May-27 02:29N 46°05' W 122°56'0 0.0
2017-May-27 01:59N 46°05' W 122°56'0 0.0
2017-May-27 01:29N 46°05' W 122°56'0 0.0
2017-May-27 00:59N 46°05' W 122°56'1 2.5
2017-May-27 00:31N 46°06' W 122°57'1 2.3
2017-May-26 23:59N 46°05' W 122°56'0 0.0
2017-May-26 23:29N 46°05' W 122°56'0 0.0
2017-May-26 22:59N 46°05' W 122°56'1 1.6
2017-May-26 22:30N 46°05' W 122°55'3 5.5
2017-May-26 22:00N 46°07' W 122°58'510.4
2017-May-26 21:30N 46°10' W 123°04'5 9.7
2017-May-26 21:01N 46°11' W 123°11'0 1.0
2017-May-26 20:30N 46°11' W 123°10'815.6
2017-May-26 20:00N 46°08' W 123°00'4 6.7
2017-May-26 19:26N 46°05' W 122°56'0 0.0
2017-May-26 18:59N 46°05' W 122°56'0 0.0
2017-May-26 18:29N 46°05' W 122°56'0 0.0
2017-May-26 17:59N 46°05' W 122°56'0 0.0
2017-May-26 17:29N 46°05' W 122°56'0 0.0
2017-May-26 16:59N 46°05' W 122°56'0 0.0
2017-May-26 16:26N 46°05' W 122°56'0 0.0
2017-May-26 15:59N 46°05' W 122°56'0 0.0
2017-May-26 15:29N 46°05' W 122°56'0 0.0
2017-May-26 14:53N 46°05' W 122°56'0 0.0
2017-May-26 13:59N 46°05' W 122°56'0 0.0
2017-May-26 13:29N 46°05' W 122°56'0 0.0
2017-May-26 12:59N 46°05' W 122°56'0 0.0
2017-May-26 12:29N 46°05' W 122°56'0 0.0
2017-May-26 11:59N 46°05' W 122°56'0 0.0
2017-May-26 11:29N 46°05' W 122°56'0 0.0
2017-May-26 10:59N 46°05' W 122°56'0 0.0
2017-May-26 10:29N 46°05' W 122°56'0 0.0
2017-May-26 09:59N 46°05' W 122°56'0 0.0
2017-May-26 09:29N 46°05' W 122°56'0 0.0
2017-May-26 08:59N 46°05' W 122°56'0 0.0
2017-May-26 08:29N 46°05' W 122°56'0 0.0
2017-May-26 07:59N 46°05' W 122°56'0 0.0
2017-May-26 07:29N 46°05' W 122°56'0 0.0
2017-May-26 07:00N 46°05' W 122°56'0 0.0
2017-May-26 06:29N 46°05' W 122°56'1 1.2
2017-May-26 06:00N 46°05' W 122°55'3 6.4
2017-May-26 05:30N 46°03' W 122°53'0 0.9
2017-May-26 05:01N 46°03' W 122°53'1 1.3
2017-May-26 04:30N 46°04' W 122°53'0 0.7
2017-May-26 04:01N 46°04' W 122°53'2 4.2
2017-May-26 03:30N 46°05' W 122°56'0 0.5
2017-May-26 03:01N 46°05' W 122°56'0 0.0
2017-May-26 02:31N 46°05' W 122°56'0 0.0
2017-May-26 02:01N 46°05' W 122°56'0 0.0
2017-May-26 01:31N 46°05' W 122°56'0 0.0
2017-May-26 01:01N 46°05' W 122°56'0 0.0
2017-May-26 00:30N 46°05' W 122°56'0 0.0
2017-May-26 00:00N 46°05' W 122°56'0 0.0
2017-May-25 23:30N 46°05' W 122°56'0 0.0
2017-May-25 23:01N 46°05' W 122°56'0 0.0
2017-May-25 22:30N 46°05' W 122°56'0 0.0
2017-May-25 22:00N 46°05' W 122°56'0 0.0
2017-May-25 21:30N 46°05' W 122°56'0 0.0
2017-May-25 21:00N 46°05' W 122°56'0 0.0
2017-May-25 20:31N 46°05' W 122°56'0 0.0
2017-May-25 20:01N 46°05' W 122°56'0 0.0
2017-May-25 19:30N 46°05' W 122°56'0 0.0
2017-May-25 19:01N 46°05' W 122°56'0 0.0
2017-May-25 18:30N 46°05' W 122°56'0 0.0
2017-May-25 18:00N 46°05' W 122°56'0 0.0
2017-May-25 17:30N 46°05' W 122°56'0 0.0
2017-May-25 17:01N 46°05' W 122°56'0 0.0
2017-May-25 16:30N 46°05' W 122°56'1 1.3
2017-May-25 16:01N 46°06' W 122°56'0 0.3
2017-May-25 15:31N 46°06' W 122°56'0 0.0
2017-May-25 15:01N 46°06' W 122°56'2 1.6
2017-May-25 14:00N 46°07' W 122°58'2 3.8
2017-May-25 13:28N 46°05' W 122°56'0 0.0
2017-May-25 12:58N 46°05' W 122°56'0 0.0
2017-May-25 12:28N 46°05' W 122°56'0 0.0
2017-May-25 11:58N 46°05' W 122°56'0 0.0
2017-May-25 11:29N 46°05' W 122°56'0 0.0
2017-May-25 10:58N 46°05' W 122°56'0 0.0
2017-May-25 10:28N 46°05' W 122°56'0 0.0
2017-May-25 09:58N 46°05' W 122°56'0 0.0
2017-May-25 09:28N 46°05' W 122°56'0 0.0
2017-May-25 09:00N 46°05' W 122°56'0 0.0
2017-May-25 08:30N 46°05' W 122°56'611.9
2017-May-25 08:00N 46°09' W 123°03'4 7.4
2017-May-25 07:30N 46°07' W 122°58'510.1
2017-May-25 07:00N 46°10' W 123°04'5 9.7
2017-May-25 06:30N 46°11' W 123°11'510.3
2017-May-25 06:00N 46°09' W 123°18'5 9.4
2017-May-25 05:30N 46°10' W 123°24'510.2
2017-May-25 05:00N 46°15' W 123°26'5 9.7
2017-May-25 04:30N 46°15' W 123°33'611.1
2017-May-25 04:00N 46°15' W 123°41'611.9
2017-May-25 03:30N 46°12' W 123°49'2 4.1
2017-May-25 03:00N 46°11' W 123°52'1 2.2
2017-May-25 02:30N 46°11' W 123°53'1 2.2
2017-May-25 02:00N 46°11' W 123°52'0 0.0
2017-May-25 01:30N 46°11' W 123°52'0 0.2
2017-May-25 01:00N 46°11' W 123°52'0 0.3
2017-May-25 00:30N 46°11' W 123°52'0 0.0
2017-May-25 00:00N 46°11' W 123°52'0 0.0
2017-May-24 23:30N 46°11' W 123°52'0 0.0
2017-May-24 22:59N 46°11' W 123°52'0 0.0
2017-May-24 22:29N 46°11' W 123°52'0 0.0
2017-May-24 21:59N 46°11' W 123°52'0 0.0
2017-May-24 21:29N 46°11' W 123°52'3 7.1
2017-May-24 21:00N 46°13' W 123°47'510.1
2017-May-24 20:30N 46°15' W 123°41'5 9.3
2017-May-24 20:00N 46°15' W 123°34'4 8.7
2017-May-24 19:30N 46°16' W 123°28'5 9.3
2017-May-24 19:00N 46°12' W 123°26'5 9.8
2017-May-24 18:30N 46°09' W 123°20'611.5
2017-May-24 18:00N 46°11' W 123°12'510.9
2017-May-24 17:31N 46°10' W 123°05'611.9
2017-May-24 17:00N 46°06' W 122°58'1 2.7
2017-May-24 16:30N 46°05' W 122°56'0 0.0
2017-May-24 16:00N 46°05' W 122°56'0 0.0
2017-May-24 15:30N 46°05' W 122°56'0 0.0
2017-May-24 15:00N 46°05' W 122°56'0 0.0
2017-May-24 14:30N 46°05' W 122°56'0 0.0
2017-May-24 13:30N 46°05' W 122°56'0 0.6
2017-May-24 13:00N 46°06' W 122°55'1 1.6
2017-May-24 12:30N 46°06' W 122°56'1 1.2
2017-May-24 11:59N 46°05' W 122°56'0 0.0
2017-May-24 11:29N 46°05' W 122°56'0 0.0
2017-May-24 10:59N 46°05' W 122°56'0 0.0
2017-May-24 10:23N 46°05' W 122°56'0 0.0
2017-May-24 09:59N 46°05' W 122°56'0 0.0
2017-May-24 09:29N 46°05' W 122°56'0 0.0
2017-May-24 08:59N 46°05' W 122°56'0 0.0
2017-May-24 08:29N 46°05' W 122°56'0 0.0
2017-May-24 07:59N 46°05' W 122°56'0 0.0
2017-May-24 07:26N 46°05' W 122°56'0 0.0
2017-May-24 06:59N 46°05' W 122°56'0 0.0
2017-May-24 06:29N 46°05' W 122°56'0 0.0
2017-May-24 05:56N 46°05' W 122°56'0 0.0
2017-May-24 05:29N 46°05' W 122°56'0 0.0
2017-May-24 04:59N 46°05' W 122°56'0 0.0
2017-May-24 04:23N 46°05' W 122°56'0 0.0
2017-May-24 03:59N 46°05' W 122°56'0 0.0
2017-May-24 03:29N 46°05' W 122°56'0 0.0
2017-May-24 02:59N 46°05' W 122°56'0 0.0
2017-May-24 02:29N 46°05' W 122°56'0 0.0
2017-May-24 01:59N 46°05' W 122°56'0 0.0
2017-May-24 01:29N 46°05' W 122°56'0 0.0
2017-May-24 00:59N 46°05' W 122°56'0 0.0
2017-May-24 00:26N 46°05' W 122°56'0 0.0
2017-May-23 23:59N 46°05' W 122°56'0 0.0
2017-May-23 23:29N 46°05' W 122°56'0 0.0
2017-May-23 22:56N 46°05' W 122°56'0 0.0
2017-May-23 22:29N 46°05' W 122°56'0 0.0
2017-May-23 21:59N 46°05' W 122°56'0 0.0
2017-May-23 21:29N 46°05' W 122°56'1 1.6
2017-May-23 21:01N 46°06' W 122°57'0 0.1
2017-May-23 20:30N 46°06' W 122°57'2 3.4
2017-May-23 20:00N 46°05' W 122°55'4 8.7
2017-May-23 19:30N 46°01' W 122°52'3 5.2
2017-May-23 19:01N 45°59' W 122°50'0 0.2
2017-May-23 18:31N 45°59' W 122°50'0 0.4
2017-May-23 18:00N 45°59' W 122°50'0 0.0
2017-May-23 17:30N 45°59' W 122°50'0 0.0
2017-May-23 17:00N 45°59' W 122°50'0 0.0
2017-May-23 16:30N 45°59' W 122°50'3 5.4
2017-May-23 16:01N 45°57' W 122°48'611.0
2017-May-23 15:30N 45°51' W 122°47'611.8
2017-May-23 15:00N 45°46' W 122°46'611.4
2017-May-23 14:31N 45°40' W 122°46'1 1.3
2017-May-23 13:26N 45°39' W 122°45'0 0.0
2017-May-23 12:59N 45°39' W 122°45'2 4.2
2017-May-23 12:30N 45°37' W 122°47'4 8.8
2017-May-23 12:00N 45°34' W 122°44'0 0.4
2017-May-23 11:30N 45°34' W 122°44'0 0.0
2017-May-23 10:51N 45°34' W 122°44'0 0.0
2017-May-23 10:30N 45°34' W 122°44'0 0.0
2017-May-23 10:00N 45°34' W 122°44'0 0.0
2017-May-23 09:27N 45°34' W 122°44'0 0.0
2017-May-23 09:00N 45°34' W 122°44'0 0.0
2017-May-23 08:27N 45°34' W 122°44'0 0.0
2017-May-23 07:39N 45°34' W 122°44'0 0.0
2017-May-23 07:30N 45°34' W 122°44'0 0.0
2017-May-23 06:57N 45°34' W 122°44'0 0.0
2017-May-23 06:27N 45°34' W 122°44'0 0.0
2017-May-23 06:00N 45°34' W 122°44'0 0.0
2017-May-23 05:30N 45°34' W 122°44'0 0.0
2017-May-23 05:00N 45°34' W 122°44'0 0.0
2017-May-23 04:30N 45°34' W 122°44'0 0.0
2017-May-23 04:01N 45°34' W 122°44'0 0.1
2017-May-23 03:30N 45°34' W 122°44'0 0.0
2017-May-23 03:01N 45°34' W 122°44'0 0.0
2017-May-23 02:31N 45°34' W 122°44'0 0.1
2017-May-23 02:00N 45°34' W 122°44'5 9.1
2017-May-23 01:30N 45°37' W 122°47'3 6.4
2017-May-23 01:01N 45°38' W 122°43'0 0.2
2017-May-23 00:31N 45°38' W 122°43'1 2.7
2017-May-23 00:00N 45°39' W 122°45'0 0.4
2017-May-22 23:31N 45°39' W 122°45'0 0.0
2017-May-22 23:01N 45°39' W 122°45'0 0.0
2017-May-22 22:24N 45°39' W 122°45'1 2.6
2017-May-22 22:00N 45°38' W 122°47'510.5
2017-May-22 21:30N 45°34' W 122°43'0 0.1
2017-May-22 20:57N 45°34' W 122°43'0 0.0
2017-May-22 20:30N 45°34' W 122°43'0 0.1
2017-May-22 20:00N 45°34' W 122°43'0 1.0
2017-May-22 19:30N 45°34' W 122°44'0 0.2
2017-May-22 18:50N 45°34' W 122°44'0 0.1
2017-May-22 18:26N 45°34' W 122°44'0 0.6
2017-May-22 18:00N 45°34' W 122°44'0 0.4
2017-May-22 17:25N 45°34' W 122°44'0 0.0
2017-May-22 16:58N 45°34' W 122°44'3 5.5
2017-May-22 16:31N 45°35' W 122°46'4 7.2
2017-May-22 16:00N 45°39' W 122°45'2 3.7
2017-May-22 15:20N 45°38' W 122°42'0 0.1
2017-May-22 14:59N 45°38' W 122°42'0 0.0
2017-May-22 14:00N 45°38' W 122°42'3 5.2
2017-May-22 13:30N 45°39' W 122°45'0 0.0
2017-May-22 13:00N 45°39' W 122°45'0 0.0
2017-May-22 12:30N 45°39' W 122°45'0 0.0
2017-May-22 12:00N 45°39' W 122°45'0 0.0
2017-May-22 11:30N 45°39' W 122°45'0 0.0
2017-May-22 11:00N 45°39' W 122°45'0 0.0
2017-May-22 10:30N 45°39' W 122°45'0 0.0
2017-May-22 10:00N 45°39' W 122°45'0 0.0
2017-May-22 09:30N 45°39' W 122°45'0 0.0
2017-May-22 09:00N 45°39' W 122°45'0 0.0
2017-May-22 08:30N 45°39' W 122°45'0 0.0
2017-May-22 08:00N 45°39' W 122°45'0 0.0
2017-May-22 07:30N 45°39' W 122°45'0 0.0
2017-May-22 07:00N 45°39' W 122°45'0 0.0
2017-May-22 06:30N 45°39' W 122°45'0 0.0
2017-May-22 06:00N 45°39' W 122°45'0 0.0
2017-May-22 05:30N 45°39' W 122°45'0 0.0
2017-May-22 04:59N 45°39' W 122°45'0 0.0
2017-May-22 04:30N 45°39' W 122°45'0 0.0
2017-May-22 04:00N 45°39' W 122°45'0 0.0
2017-May-22 03:30N 45°39' W 122°45'0 0.0
2017-May-22 03:00N 45°39' W 122°45'0 0.0
2017-May-22 02:28N 45°39' W 122°45'0 0.0
2017-May-22 02:00N 45°39' W 122°45'0 0.0
2017-May-22 01:29N 45°39' W 122°45'0 0.0
2017-May-22 01:00N 45°39' W 122°45'0 0.0
2017-May-22 00:31N 45°39' W 122°45'0 0.6
2017-May-21 23:55N 45°39' W 122°45'1 2.6
2017-May-21 23:30N 45°38' W 122°47'2 4.5
2017-May-21 22:59N 45°36' W 122°47'1 1.1
2017-May-21 22:30N 45°36' W 122°47'0 0.8
2017-May-21 22:00N 45°37' W 122°47'3 5.5
2017-May-21 21:30N 45°39' W 122°44'1 1.1
2017-May-21 20:59N 45°39' W 122°45'0 0.0
2017-May-21 20:29N 45°39' W 122°45'0 0.0
2017-May-21 19:59N 45°39' W 122°45'0 0.0
2017-May-21 19:29N 45°39' W 122°45'0 0.0
2017-May-21 18:59N 45°39' W 122°45'0 0.0
2017-May-21 18:29N 45°39' W 122°45'0 0.0
2017-May-21 17:50N 45°39' W 122°45'0 0.0
2017-May-21 17:29N 45°39' W 122°45'0 0.0
2017-May-21 16:59N 45°39' W 122°45'0 0.0
2017-May-21 16:29N 45°39' W 122°45'0 0.0
2017-May-21 15:59N 45°39' W 122°45'0 0.0
2017-May-21 15:29N 45°39' W 122°45'0 0.0
2017-May-21 14:56N 45°39' W 122°45'0 0.0
2017-May-21 14:26N 45°39' W 122°45'0 0.0
2017-May-21 13:29N 45°39' W 122°45'0 0.0
2017-May-21 12:59N 45°39' W 122°45'0 0.0
2017-May-21 12:29N 45°39' W 122°45'0 0.0
2017-May-21 11:59N 45°39' W 122°45'0 0.0
2017-May-21 11:29N 45°39' W 122°45'0 0.0
2017-May-21 10:59N 45°39' W 122°45'0 0.0
2017-May-21 10:29N 45°39' W 122°45'0 0.0
2017-May-21 09:59N 45°39' W 122°45'0 0.0
2017-May-21 09:29N 45°39' W 122°45'0 0.0
2017-May-21 08:59N 45°39' W 122°45'0 0.0
2017-May-21 08:29N 45°39' W 122°45'0 0.0
2017-May-21 07:50N 45°39' W 122°45'0 0.0
2017-May-21 07:29N 45°39' W 122°45'0 0.0
2017-May-21 06:47N 45°39' W 122°45'0 0.0
2017-May-21 06:29N 45°39' W 122°45'0 0.0
2017-May-21 05:59N 45°39' W 122°45'0 0.0
2017-May-21 05:29N 45°39' W 122°45'0 0.0
2017-May-21 04:59N 45°39' W 122°45'0 0.0
2017-May-21 04:29N 45°39' W 122°45'0 0.0
2017-May-21 03:59N 45°39' W 122°45'0 0.0
2017-May-21 03:26N 45°39' W 122°45'0 0.0
2017-May-21 02:59N 45°39' W 122°45'0 0.0
2017-May-21 02:29N 45°39' W 122°45'0 0.0
2017-May-21 01:59N 45°39' W 122°45'0 0.0
2017-May-21 01:29N 45°39' W 122°45'0 0.0
2017-May-21 00:59N 45°39' W 122°45'0 0.0
2017-May-21 00:29N 45°39' W 122°45'0 0.0
2017-May-20 23:59N 45°39' W 122°45'0 0.0
2017-May-20 23:29N 45°39' W 122°45'0 0.0
2017-May-20 22:59N 45°39' W 122°45'0 0.0
2017-May-20 22:29N 45°39' W 122°45'0 0.0
2017-May-20 21:59N 45°39' W 122°45'0 0.0
2017-May-20 21:29N 45°39' W 122°45'0 0.0
2017-May-20 19:47N 45°39' W 122°45'0 0.0
2017-May-20 19:29N 45°39' W 122°45'0 0.0
2017-May-20 18:41N 45°39' W 122°45'0 0.0
2017-May-20 18:29N 45°39' W 122°45'0 0.0
2017-May-20 17:59N 45°39' W 122°45'0 0.0
2017-May-20 17:29N 45°39' W 122°45'0 0.0
2017-May-20 16:59N 45°39' W 122°45'0 0.0
2017-May-20 16:29N 45°39' W 122°45'0 0.0
2017-May-20 15:59N 45°39' W 122°45'0 0.0
2017-May-20 15:29N 45°39' W 122°45'0 0.0
2017-May-20 14:59N 45°39' W 122°45'0 0.0
2017-May-20 14:29N 45°39' W 122°45'0 0.0
2017-May-20 13:29N 45°39' W 122°45'0 0.0
2017-May-20 12:59N 45°39' W 122°45'0 0.0
2017-May-20 12:26N 45°39' W 122°45'0 0.0
2017-May-20 11:59N 45°39' W 122°45'0 0.0
2017-May-20 11:29N 45°39' W 122°45'0 0.0
2017-May-20 10:59N 45°39' W 122°45'0 0.0
2017-May-20 10:23N 45°39' W 122°45'0 0.0
2017-May-20 09:59N 45°39' W 122°45'0 0.0
2017-May-20 09:29N 45°39' W 122°45'0 0.0
2017-May-20 08:59N 45°39' W 122°45'0 0.0
2017-May-20 08:29N 45°39' W 122°45'0 0.0
2017-May-20 07:59N 45°39' W 122°45'0 0.0
2017-May-20 07:29N 45°39' W 122°45'0 0.0
2017-May-20 06:59N 45°39' W 122°45'0 0.0
2017-May-20 06:29N 45°39' W 122°45'0 0.0
2017-May-20 05:59N 45°39' W 122°45'0 0.0
2017-May-20 05:29N 45°39' W 122°45'1 1.7
2017-May-20 05:00N 45°39' W 122°44'2 3.2
2017-May-20 04:31N 45°38' W 122°42'2 4.6
2017-May-20 04:00N 45°39' W 122°45'0 0.0
2017-May-20 03:30N 45°39' W 122°45'0 0.0
2017-May-20 03:00N 45°39' W 122°45'0 0.0
2017-May-20 02:30N 45°39' W 122°45'0 0.0
2017-May-20 02:00N 45°39' W 122°45'0 0.0
2017-May-20 01:30N 45°39' W 122°45'0 0.0
2017-May-20 00:42N 45°39' W 122°45'0 0.0
2017-May-20 00:30N 45°39' W 122°45'0 0.0
2017-May-20 00:00N 45°39' W 122°45'0 0.0
2017-May-19 23:30N 45°39' W 122°45'0 0.0
2017-May-19 23:00N 45°39' W 122°45'0 0.0
2017-May-19 22:30N 45°39' W 122°45'0 0.0
2017-May-19 22:00N 45°39' W 122°45'0 0.0
2017-May-19 21:30N 45°39' W 122°45'0 0.0
2017-May-19 20:54N 45°39' W 122°45'0 0.0
2017-May-19 20:27N 45°39' W 122°45'0 0.0
2017-May-19 20:00N 45°39' W 122°45'0 0.0
2017-May-19 19:24N 45°39' W 122°45'0 0.0
2017-May-19 18:57N 45°39' W 122°45'0 0.0
2017-May-19 18:27N 45°39' W 122°45'0 0.0
2017-May-19 18:00N 45°39' W 122°45'0 0.0
2017-May-19 17:09N 45°39' W 122°45'0 0.0
2017-May-19 16:51N 45°39' W 122°45'0 0.0
2017-May-19 16:24N 45°39' W 122°45'0 0.0
2017-May-19 16:00N 45°39' W 122°45'0 0.0
2017-May-19 15:27N 45°39' W 122°45'0 0.0
2017-May-19 15:00N 45°39' W 122°45'0 0.0
2017-May-19 14:01N 45°39' W 122°45'0 0.0
2017-May-19 13:26N 45°39' W 122°45'0 0.0
2017-May-19 13:01N 45°39' W 122°45'0 0.0
2017-May-19 12:31N 45°39' W 122°45'0 0.0
2017-May-19 12:00N 45°39' W 122°45'0 0.0
2017-May-19 11:30N 45°39' W 122°45'0 0.0
2017-May-19 11:01N 45°39' W 122°45'0 0.0
2017-May-19 10:31N 45°39' W 122°45'0 0.0
2017-May-19 10:01N 45°39' W 122°45'0 0.0
2017-May-19 09:30N 45°39' W 122°45'0 0.0
2017-May-19 09:00N 45°39' W 122°45'0 0.0
2017-May-19 08:30N 45°39' W 122°45'0 0.0
2017-May-19 08:01N 45°39' W 122°45'0 0.0
2017-May-19 07:31N 45°39' W 122°45'0 0.0
2017-May-19 07:01N 45°39' W 122°45'0 0.0
2017-May-19 06:31N 45°39' W 122°45'0 0.0
2017-May-19 06:01N 45°39' W 122°45'0 0.0
2017-May-19 05:30N 45°39' W 122°45'0 0.0
2017-May-19 05:00N 45°39' W 122°45'0 0.0
2017-May-19 04:31N 45°39' W 122°45'0 0.0
2017-May-19 04:01N 45°39' W 122°45'3 6.7
2017-May-19 03:31N 45°42' W 122°46'5 9.6
2017-May-19 03:00N 45°47' W 122°46'4 8.7
2017-May-19 02:30N 45°51' W 122°47'4 7.2
2017-May-19 02:01N 45°54' W 122°49'4 8.1
2017-May-19 01:31N 45°58' W 122°50'1 1.3
2017-May-19 01:01N 45°59' W 122°50'0 0.6
2017-May-19 00:30N 45°59' W 122°50'0 0.6
2017-May-19 00:00N 45°59' W 122°50'1 2.0
2017-May-18 23:30N 45°58' W 122°49'713.6
2017-May-18 23:00N 45°52' W 122°47'713.9
2017-May-18 22:30N 45°45' W 122°46'611.9
2017-May-18 22:00N 45°39' W 122°45'1 2.4
2017-May-18 21:30N 45°38' W 122°43'2 3.1
2017-May-18 21:01N 45°39' W 122°45'0 0.0
2017-May-18 20:31N 45°39' W 122°45'0 0.0
2017-May-18 20:01N 45°39' W 122°45'0 0.0
2017-May-18 19:31N 45°39' W 122°45'0 0.0
2017-May-18 18:55N 45°39' W 122°45'0 0.0
2017-May-18 18:31N 45°39' W 122°45'0 0.0
2017-May-18 18:01N 45°39' W 122°45'0 0.0
2017-May-18 17:31N 45°39' W 122°45'0 0.0
2017-May-18 16:52N 45°39' W 122°45'0 0.0
2017-May-18 16:31N 45°39' W 122°45'0 0.0
2017-May-18 16:01N 45°39' W 122°45'2 5.0
2017-May-18 15:30N 45°38' W 122°42'0 0.2
2017-May-18 15:00N 45°38' W 122°42'0 0.1
2017-May-18 14:31N 45°38' W 122°42'3 2.5
2017-May-18 13:30N 45°39' W 122°45'0 0.0
2017-May-18 12:58N 45°39' W 122°45'0 0.0
2017-May-18 12:28N 45°39' W 122°45'0 0.0
2017-May-18 11:55N 45°39' W 122°45'0 0.0
2017-May-18 11:28N 45°39' W 122°45'0 0.0
2017-May-18 10:58N 45°39' W 122°45'0 0.0
2017-May-18 10:25N 45°39' W 122°45'0 0.0
2017-May-18 09:58N 45°39' W 122°45'0 0.0
2017-May-18 09:22N 45°39' W 122°45'0 0.0
2017-May-18 08:55N 45°39' W 122°45'0 0.0
2017-May-18 08:25N 45°39' W 122°45'0 0.0
2017-May-18 07:58N 45°39' W 122°45'0 0.0
2017-May-18 06:49N 45°39' W 122°45'0 0.0
2017-May-18 06:25N 45°39' W 122°45'0 0.0
2017-May-18 05:58N 45°39' W 122°45'0 0.0
2017-May-18 05:25N 45°39' W 122°45'1 3.6
2017-May-18 05:00N 45°38' W 122°43'0 0.0
2017-May-18 04:30N 45°38' W 122°43'0 0.1
2017-May-18 04:01N 45°38' W 122°43'1 2.4
2017-May-18 03:31N 45°39' W 122°45'0 0.7
2017-May-18 03:00N 45°39' W 122°45'0 0.0
2017-May-18 02:30N 45°39' W 122°45'0 0.0
2017-May-18 02:00N 45°39' W 122°45'0 0.0
2017-May-18 01:30N 45°39' W 122°45'0 0.0
2017-May-18 01:00N 45°39' W 122°45'1 1.0
2017-May-18 00:30N 45°39' W 122°44'0 0.3
2017-May-18 00:00N 45°39' W 122°44'0 0.2
2017-May-17 23:22N 45°39' W 122°44'0 0.1
2017-May-17 23:00N 45°39' W 122°44'1 2.6
2017-May-17 22:30N 45°39' W 122°46'2 4.6
2017-May-17 22:00N 45°37' W 122°47'4 8.3
2017-May-17 21:30N 45°34' W 122°43'  

Dump ship's entire track history